Time;durP1;ratioP1;P1;durP2;ratioP2;P2;SDS_P1;SDS_P2;PMS_P1;PMS_P2;Temp;Humidity;BMP_temperature;BMP_pressure;BME280_temperature;BME280_humidity;BME280_pressure;Samples;Min_cycle;Max_cycle;Signal;HPM_P1;HPM_P2
2020/02/23 00:00:55;;;;;;;8.9;4.8;;;;;;;5.93;62.7832;946.7939;;;;
2020/02/23 00:03:34;;;;;;;7.1;4.6;;;;;;;6.03;62.3457;946.7522;;;;
2020/02/23 00:06:03;;;;;;;7.6;4.9;;;;;;;6.2;62.33691;946.7701;;;;
2020/02/23 00:08:35;;;;;;;11.3;7.1;;;;;;;6.16;64.11719;946.5844;;;;
2020/02/23 00:11:20;;;;;;;11.4;6.7;;;;;;;6.17;63.57715;946.6085;;;;
2020/02/23 00:13:35;;;;;;;12.3;7.1;;;;;;;6.15;64.11621;946.6915;;;;
2020/02/23 00:16:16;;;;;;;12.7;6.9;;;;;;;6.23;62.90527;946.6481;;;;
2020/02/23 00:19:10;;;;;;;13.1;7.4;;;;;;;6.28;62.82324;946.7537;;;;
2020/02/23 00:21:51;;;;;;;10.4;6.7;;;;;;;6.5;61.80469;946.8417;;;;
2020/02/23 00:24:16;;;;;;;11;6.4;;;;;;;6.49;62.95508;946.8072;;;;
2020/02/23 00:26:48;;;;;;;9.8;6;;;;;;;6.5;62.07422;946.8811;;;;
2020/02/23 00:29:25;;;;;;;8.6;5.9;;;;;;;6.46;61.43555;946.8187;;;;
2020/02/23 00:31:54;;;;;;;10.4;5.9;;;;;;;6.47;61.57324;946.9094;;;;
2020/02/23 00:35:18;;;;;;;8.1;5.3;;;;;;;6.49;61.28027;946.9558;;;;
2020/02/23 00:36:59;;;;;;;7.7;4.3;;;;;;;6.58;59.66699;946.9009;;;;
2020/02/23 00:39:40;;;;;;;8.7;4.6;;;;;;;6.67;59.92773;946.851;;;;
2020/02/23 00:42:09;;;;;;;7.3;3.8;;;;;;;6.53;58.99121;946.7606;;;;
2020/02/23 00:44:37;;;;;;;6.4;4;;;;;;;6.63;59.48047;946.74;;;;
2020/02/23 00:47:31;;;;;;;5.9;3.5;;;;;;;6.79;57.24902;946.545;;;;
2020/02/23 00:49:53;;;;;;;5;3.1;;;;;;;6.83;57.42676;946.5112;;;;
2020/02/23 00:52:18;;;;;;;7.6;3.3;;;;;;;6.93;57.7666;946.4743;;;;
2020/02/23 00:54:49;;;;;;;6.2;3.4;;;;;;;7.04;57.75879;946.3599;;;;
2020/02/23 00:57:30;;;;;;;5.6;3.3;;;;;;;7.09;57.60645;946.3219;;;;
2020/02/23 01:00:13;;;;;;;5;3.1;;;;;;;7.07;58.13672;946.3148;;;;
2020/02/23 01:02:29;;;;;;;6.3;3.7;;;;;;;7.13;60.0918;946.2853;;;;
2020/02/23 01:05:06;;;;;;;6.4;3;;;;;;;7.17;57.19922;946.2054;;;;
2020/02/23 01:07:39;;;;;;;5;3.5;;;;;;;6.84;58.70605;946.2449;;;;
2020/02/23 01:10:00;;;;;;;4.8;3.1;;;;;;;6.66;59.92578;946.2031;;;;
2020/02/23 01:12:32;;;;;;;5.9;3.3;;;;;;;6.72;61.21191;946.2068;;;;
2020/02/23 01:14:56;;;;;;;5.9;3.8;;;;;;;6.73;60.22852;946.0693;;;;
2020/02/23 01:17:34;;;;;;;6.1;4;;;;;;;6.67;62.00977;946.0151;;;;
2020/02/23 01:19:59;;;;;;;6.7;4.2;;;;;;;6.68;62.1582;946.1082;;;;
2020/02/23 01:22:33;;;;;;;5.8;3.9;;;;;;;6.77;60.50684;946.1089;;;;
2020/02/23 01:25:03;;;;;;;8.8;3.9;;;;;;;6.84;60.40332;946.0878;;;;
2020/02/23 01:27:59;;;;;;;6.5;3.8;;;;;;;6.81;61.19238;945.9847;;;;
2020/02/23 01:30:34;;;;;;;6.7;3.9;;;;;;;6.88;60.5459;945.9992;;;;
2020/02/23 01:33:25;;;;;;;4.7;3.5;;;;;;;6.8;61.30371;945.7673;;;;
2020/02/23 01:38:22;;;;;;;6.7;4;;;;;;;6.76;61.88574;945.7619;;;;
2020/02/23 01:40:53;;;;;;;6.9;4.2;;;;;;;6.83;61.27441;945.8532;;;;
2020/02/23 01:43:41;;;;;;;6.2;3.6;;;;;;;6.86;61.74316;945.8205;;;;
2020/02/23 01:46:34;;;;;;;5.5;3.2;;;;;;;6.88;61.94824;945.9658;;;;
2020/02/23 01:48:55;;;;;;;5.1;3.4;;;;;;;7.01;62.16016;945.9637;;;;
2020/02/23 01:51:48;;;;;;;5.6;3.6;;;;;;;6.97;63.67285;945.7728;;;;
2020/02/23 01:54:40;;;;;;;5.5;3.3;;;;;;;6.92;63.60645;945.846;;;;
2020/02/23 01:57:36;;;;;;;6;3.6;;;;;;;6.93;64.07324;945.8102;;;;
2020/02/23 02:00:09;;;;;;;5.1;2.8;;;;;;;6.86;62.19531;945.9144;;;;
2020/02/23 02:05:08;;;;;;;5.3;2.8;;;;;;;6.87;62.46777;945.8928;;;;
2020/02/23 02:07:45;;;;;;;6.1;3.1;;;;;;;6.95;62.01563;945.8384;;;;
2020/02/23 02:10:30;;;;;;;4.3;3;;;;;;;7.05;61.67871;945.8281;;;;
2020/02/23 02:13:10;;;;;;;4.5;3.1;;;;;;;7.11;61.56348;945.7747;;;;
2020/02/23 02:15:47;;;;;;;4.2;2.8;;;;;;;7.13;60.88574;945.7739;;;;
2020/02/23 02:18:16;;;;;;;5.1;2.9;;;;;;;7.16;60.6875;945.771;;;;
2020/02/23 02:20:31;;;;;;;5.5;2.9;;;;;;;7.14;60.85449;945.6506;;;;
2020/02/23 02:23:35;;;;;;;7.6;3.4;;;;;;;7.22;60.53613;945.6884;;;;
2020/02/23 02:25:59;;;;;;;5.3;3.1;;;;;;;7.19;61.20117;945.5818;;;;
2020/02/23 02:28:11;;;;;;;6;3;;;;;;;7.09;60.34863;945.5444;;;;
2020/02/23 02:34:11;;;;;;;3.9;3;;;;;;;7.07;61.36426;945.6333;;;;
2020/02/23 02:36:04;;;;;;;6.2;3.2;;;;;;;7.19;61.58594;945.7094;;;;
2020/02/23 02:38:56;;;;;;;4.1;2.8;;;;;;;7.18;60.17871;945.6147;;;;
2020/02/23 02:41:43;;;;;;;5.6;3.5;;;;;;;7.06;62.65527;945.5584;;;;
2020/02/23 02:44:20;;;;;;;5.5;3.1;;;;;;;6.82;61.72461;945.6147;;;;
2020/02/23 02:46:51;;;;;;;5.9;3.4;;;;;;;6.85;61.71777;945.6331;;;;
2020/02/23 02:49:36;;;;;;;5.7;3.3;;;;;;;6.89;61.63379;945.6163;;;;
2020/02/23 02:51:54;;;;;;;6.5;3.4;;;;;;;6.69;62.56641;945.6621;;;;
2020/02/23 02:54:22;;;;;;;4.9;3;;;;;;;6.83;61.60254;945.5558;;;;
2020/02/23 02:57:06;;;;;;;7;3.1;;;;;;;6.88;61.88184;945.692;;;;
2020/02/23 02:59:31;;;;;;;5.2;2.9;;;;;;;6.97;62.82227;945.8155;;;;
2020/02/23 03:02:22;;;;;;;5.8;3.2;;;;;;;7.1;61.32422;945.9233;;;;
2020/02/23 03:05:08;;;;;;;4.8;3.1;;;;;;;7.12;62.27832;945.7797;;;;
2020/02/23 03:07:22;;;;;;;7.6;3.4;;;;;;;7.23;61.80664;945.8075;;;;
2020/02/23 03:09:51;;;;;;;5.4;3.1;;;;;;;7.26;61.94629;945.8869;;;;
2020/02/23 03:12:33;;;;;;;4.9;3.1;;;;;;;7.19;60.99707;945.8542;;;;
2020/02/23 03:15:00;;;;;;;4.3;2.9;;;;;;;7.23;61.23926;945.8384;;;;
2020/02/23 03:17:48;;;;;;;5.8;3;;;;;;;6.99;60.87793;945.9089;;;;
2020/02/23 03:20:11;;;;;;;4.5;3;;;;;;;7.11;61.77832;945.9221;;;;
2020/02/23 03:22:34;;;;;;;5.8;3;;;;;;;7.09;60.50684;945.8635;;;;
2020/02/23 03:25:19;;;;;;;6.1;3;;;;;;;6.97;61.41895;945.8457;;;;
2020/02/23 03:28:02;;;;;;;4.1;2.6;;;;;;;6.97;61.19141;945.9238;;;;
2020/02/23 03:30:24;;;;;;;3.7;2.4;;;;;;;7.07;60.42383;945.827;;;;
2020/02/23 03:33:07;;;;;;;3.3;2.4;;;;;;;6.97;60.91992;945.9864;;;;
2020/02/23 03:35:41;;;;;;;3.5;2.4;;;;;;;6.99;60.99121;945.9562;;;;
2020/02/23 03:38:13;;;;;;;4.1;2.5;;;;;;;7.14;62.28223;946.1061;;;;
2020/02/23 03:40:37;;;;;;;4.7;2.9;;;;;;;7.3;61.48828;946.1164;;;;
2020/02/23 03:43:30;;;;;;;4.6;2.8;;;;;;;7.23;61.42188;946.2789;;;;
2020/02/23 03:45:52;;;;;;;5.3;2.4;;;;;;;7.24;60.74414;946.3347;;;;
2020/02/23 03:48:18;;;;;;;4.3;2.4;;;;;;;7.38;60.52441;946.4598;;;;
2020/02/23 03:50:49;;;;;;;3.9;2.5;;;;;;;7.37;60.58105;946.5974;;;;
2020/02/23 03:53:27;;;;;;;3.3;2.3;;;;;;;7.44;60.97656;946.4387;;;;
2020/02/23 03:56:03;;;;;;;3.8;2.4;;;;;;;7.49;61.1416;946.4799;;;;
2020/02/23 03:58:26;;;;;;;4.6;2.4;;;;;;;7.38;60.47949;946.6445;;;;
2020/02/23 04:03:11;;;;;;;4.3;2.3;;;;;;;7.55;60.74219;946.3972;;;;
2020/02/23 04:05:46;;;;;;;3.9;2.3;;;;;;;7.28;60.63574;946.4274;;;;
2020/02/23 04:08:09;;;;;;;3.9;2.4;;;;;;;7.42;61.28027;946.4253;;;;
2020/02/23 04:10:42;;;;;;;3.8;2.4;;;;;;;7.5;61.22168;946.5023;;;;
2020/02/23 04:13:19;;;;;;;3.5;2.3;;;;;;;7.54;61.08105;946.3516;;;;
2020/02/23 04:15:47;;;;;;;3.8;2.7;;;;;;;7.6;60.85059;946.4336;;;;
2020/02/23 04:18:21;;;;;;;3.6;2.4;;;;;;;7.61;61.69141;946.2921;;;;
2020/02/23 04:20:52;;;;;;;4;2.3;;;;;;;7.7;62.22754;946.4826;;;;
2020/02/23 04:23:25;;;;;;;4.1;2.3;;;;;;;7.66;61.9375;946.432;;;;
2020/02/23 04:25:46;;;;;;;4.1;2.4;;;;;;;7.59;63.56055;946.3732;;;;
2020/02/23 04:28:32;;;;;;;3.7;2.2;;;;;;;7.6;62.69922;946.279;;;;
2020/02/23 04:30:56;;;;;;;5.5;2.4;;;;;;;7.67;63.71875;946.3452;;;;
2020/02/23 04:33:28;;;;;;;5.5;2.2;;;;;;;7.73;61.94727;946.3702;;;;
2020/02/23 04:36:42;;;;;;;3.8;2.2;;;;;;;7.7;63.14648;946.4302;;;;
2020/02/23 04:39:13;;;;;;;3.7;2.5;;;;;;;7.84;62.89258;946.3778;;;;
2020/02/23 04:41:47;;;;;;;3.1;2.2;;;;;;;7.84;63.0625;946.4294;;;;
2020/02/23 04:44:20;;;;;;;3.6;2.1;;;;;;;7.84;63.40332;946.4992;;;;
2020/02/23 04:46:49;;;;;;;2.6;2.2;;;;;;;7.73;63.8418;946.4297;;;;
2020/02/23 04:49:26;;;;;;;3.3;2.1;;;;;;;7.77;63.74512;946.4911;;;;
2020/02/23 04:51:59;;;;;;;3.4;2;;;;;;;7.74;64.0918;946.291;;;;
2020/02/23 04:54:21;;;;;;;3.6;2.1;;;;;;;7.54;64.46973;946.4116;;;;
2020/02/23 04:56:45;;;;;;;3.3;1.9;;;;;;;7.59;64.94141;946.5084;;;;
2020/02/23 04:59:13;;;;;;;2.1;1.8;;;;;;;7.62;65.18652;946.3864;;;;
2020/02/23 05:01:39;;;;;;;2.1;1.6;;;;;;;7.56;64.66602;946.4528;;;;
2020/02/23 05:04:33;;;;;;;3.4;2.1;;;;;;;7.37;65.88477;946.4739;;;;
2020/02/23 05:07:23;;;;;;;3;2.2;;;;;;;7.54;66.21777;946.5142;;;;
2020/02/23 05:09:45;;;;;;;4.4;2.4;;;;;;;7.6;66.58887;946.42;;;;
2020/02/23 05:12:14;;;;;;;5.1;2.6;;;;;;;7.6;68.18945;946.3251;;;;
2020/02/23 05:14:51;;;;;;;3.1;2.2;;;;;;;7.71;67.58105;946.3154;;;;
2020/02/23 05:17:19;;;;;;;2.9;2.3;;;;;;;7.75;68.7002;946.4034;;;;
2020/02/23 05:19:47;;;;;;;3.4;2.4;;;;;;;7.47;70.83203;946.2051;;;;
2020/02/23 05:22:19;;;;;;;3.6;2.8;;;;;;;7.2;71.05957;946.2886;;;;
2020/02/23 05:25:10;;;;;;;2.6;1.8;;;;;;;7.31;68.6084;946.1733;;;;
2020/02/23 05:27:31;;;;;;;3.7;2.7;;;;;;;7.5;71.22168;946.1655;;;;
2020/02/23 05:29:54;;;;;;;4.6;2.8;;;;;;;7.63;72.52441;946.2653;;;;
2020/02/23 05:32:48;;;;;;;4.1;2.7;;;;;;;7.63;73.85156;946.0355;;;;
2020/02/23 05:35:00;;;;;;;3.6;2.4;;;;;;;7.68;74.88086;946.034;;;;
2020/02/23 05:37:38;;;;;;;3.5;2.4;;;;;;;7.66;74.69629;946.0675;;;;
2020/02/23 05:40:10;;;;;;;3.6;2.6;;;;;;;7.52;74.67188;945.9022;;;;
2020/02/23 05:42:39;;;;;;;5.6;2.6;;;;;;;7.54;75.88965;945.8428;;;;
2020/02/23 05:45:17;;;;;;;4.6;2.8;;;;;;;7.47;77.14648;945.6908;;;;
2020/02/23 05:47:42;;;;;;;4.2;2.5;;;;;;;7.47;76.26172;945.7241;;;;
2020/02/23 05:50:07;;;;;;;2.7;2;;;;;;;7.42;75.1416;945.7238;;;;
2020/02/23 05:52:45;;;;;;;3.5;2.2;;;;;;;7.43;76.2998;945.6465;;;;
2020/02/23 05:55:11;;;;;;;4.4;3.2;;;;;;;7.32;78.77539;945.8663;;;;
2020/02/23 05:58:25;;;;;;;6.6;4.6;;;;;;;7.34;78.56152;945.8326;;;;
2020/02/23 06:00:49;;;;;;;6.4;2.8;;;;;;;7.14;80.16797;945.8754;;;;
2020/02/23 06:03:12;;;;;;;4;2.6;;;;;;;7.13;80.57422;945.8823;;;;
2020/02/23 06:05:45;;;;;;;4.3;2.6;;;;;;;7.14;81.41406;945.8113;;;;
2020/02/23 06:08:07;;;;;;;4.5;2.6;;;;;;;7.06;81.74902;945.8821;;;;
2020/02/23 06:10:43;;;;;;;5.4;2.5;;;;;;;6.99;82.84668;945.8786;;;;
2020/02/23 06:13:05;;;;;;;3.7;2.8;;;;;;;6.92;83.25195;945.653;;;;
2020/02/23 06:15:36;;;;;;;2.9;2.5;;;;;;;6.9;84.43555;945.9261;;;;
2020/02/23 06:21:44;;;;;;;2.8;2.3;;;;;;;7.12;84.84277;945.9313;;;;
2020/02/23 06:24:49;;;;;;;3.8;2.5;;;;;;;7.32;84.57617;945.9777;;;;
2020/02/23 06:27:42;;;;;;;4.3;2.4;;;;;;;7.03;86.16113;945.9858;;;;
2020/02/23 06:29:46;;;;;;;2.3;1.9;;;;;;;7.1;87.44238;945.8392;;;;
2020/02/23 06:32:36;;;;;;;2.8;2.2;;;;;;;7.27;86.76563;945.7813;;;;
2020/02/23 06:35:12;;;;;;;3.8;2.3;;;;;;;7.56;85.97168;945.9178;;;;
2020/02/23 06:37:45;;;;;;;3.7;2.5;;;;;;;7.71;85.40137;945.9294;;;;
2020/02/23 06:40:28;;;;;;;3.1;2.3;;;;;;;7.69;85.46582;946.1142;;;;
2020/02/23 06:42:51;;;;;;;4.4;2.8;;;;;;;7.79;84.95215;946.082;;;;
2020/02/23 06:46:44;;;;;;;5;2.9;;;;;;;7.9;84.54395;945.9907;;;;
2020/02/23 06:50:41;;;;;;;3.5;2.6;;;;;;;8.06;84.6875;946.0658;;;;
2020/02/23 06:53:15;;;;;;;6;2.9;;;;;;;8.09;85.39648;946.1039;;;;
2020/02/23 06:56:27;;;;;;;9.2;4.5;;;;;;;8.06;85.17578;945.9714;;;;
2020/02/23 06:58:57;;;;;;;5.5;3.7;;;;;;;7.67;85.25781;945.948;;;;
2020/02/23 07:01:22;;;;;;;4;3.1;;;;;;;7.6;85.70801;945.8478;;;;
2020/02/23 07:03:46;;;;;;;6.3;3.5;;;;;;;7.55;84.93945;945.7949;;;;
2020/02/23 07:06:19;;;;;;;7.5;4.1;;;;;;;7.39;85.30371;945.8295;;;;
2020/02/23 07:08:52;;;;;;;5.3;3.8;;;;;;;7.29;85.72852;945.71;;;;
2020/02/23 07:11:25;;;;;;;6.6;5.4;;;;;;;7.32;85.4375;945.6133;;;;
2020/02/23 07:13:58;;;;;;;5.9;4.4;;;;;;;7.11;86.24707;945.6458;;;;
2020/02/23 07:16:26;;;;;;;5.5;3.8;;;;;;;7.13;86.31738;945.4713;;;;
2020/02/23 07:18:54;;;;;;;5.7;4.8;;;;;;;7.09;87.02344;945.5184;;;;
2020/02/23 07:21:25;;;;;;;5;4.3;;;;;;;7.12;87.76465;945.5009;;;;
2020/02/23 07:24:27;;;;;;;7.6;5.7;;;;;;;7.26;87.625;945.3658;;;;
2020/02/23 07:26:56;;;;;;;5;4.1;;;;;;;7.46;87.74414;945.3903;;;;
2020/02/23 07:29:37;;;;;;;7;4.5;;;;;;;7.58;87.21289;945.4224;;;;
2020/02/23 07:32:09;;;;;;;6.2;4.9;;;;;;;7.61;86.32422;945.3661;;;;
2020/02/23 07:34:43;;;;;;;9.7;6.4;;;;;;;7.68;86.58691;945.2413;;;;
2020/02/23 07:37:15;;;;;;;6.7;5.3;;;;;;;7.7;86.99805;945.3369;;;;
2020/02/23 07:39:45;;;;;;;11.9;8;;;;;;;7.59;87.5;945.2303;;;;
2020/02/23 07:42:15;;;;;;;11.8;8.2;;;;;;;7.52;87.80273;945.2804;;;;
2020/02/23 07:44:43;;;;;;;11.8;8.9;;;;;;;7.52;88.49414;945.27;;;;
2020/02/23 07:47:38;;;;;;;12.8;10.1;;;;;;;7.71;89.06445;945.3055;;;;
2020/02/23 07:50:09;;;;;;;8.8;5.7;;;;;;;7.71;90.1084;945.2389;;;;
2020/02/23 07:52:37;;;;;;;9.3;6.2;;;;;;;7.84;89.61523;945.3837;;;;
2020/02/23 07:55:45;;;;;;;12.8;9.5;;;;;;;7.79;88.76367;945.293;;;;
2020/02/23 07:58:10;;;;;;;29.3;21.3;;;;;;;7.77;88.44238;945.2719;;;;
2020/02/23 08:00:49;;;;;;;15.2;11.3;;;;;;;7.86;88.94922;945.2726;;;;
2020/02/23 17:16:16;;;;;;;11.8;0.8;;;;;;;18.73;37.78711;938.9855;;;;
2020/02/23 17:18:41;;;;;;;1.9;0.5;;;;;;;18.79;38.01367;938.8577;;;;
2020/02/23 17:21:06;;;;;;;1;0.4;;;;;;;18.75;37.36914;938.8731;;;;
2020/02/23 17:23:31;;;;;;;0.4;0.4;;;;;;;18.87;38.13574;938.8272;;;;
2020/02/23 17:25:57;;;;;;;1.6;0.3;;;;;;;18.66;38.28125;938.8862;;;;
2020/02/23 17:28:21;;;;;;;0.3;0.3;;;;;;;18.65;37.38477;938.8984;;;;
2020/02/23 17:30:47;;;;;;;1.9;0.5;;;;;;;18.63;37.71973;939.1168;;;;
2020/02/23 17:33:12;;;;;;;0.6;0.3;;;;;;;18.59;37.72852;939.0145;;;;
2020/02/23 17:35:37;;;;;;;0.7;0.6;;;;;;;18.67;37.24707;938.8764;;;;
2020/02/23 17:38:03;;;;;;;1.3;0.8;;;;;;;18.81;37.16602;938.8411;;;;
2020/02/23 17:40:27;;;;;;;1.4;0.5;;;;;;;18.52;37.55957;938.7601;;;;
2020/02/23 17:42:52;;;;;;;0.6;0.4;;;;;;;18.73;37.42676;938.7693;;;;
2020/02/23 17:45:17;;;;;;;0.8;0.3;;;;;;;18.58;37.94824;938.6573;;;;
2020/02/23 17:47:43;;;;;;;0.7;0.5;;;;;;;18.69;36.48047;938.8622;;;;
2020/02/23 17:50:07;;;;;;;1.4;0.3;;;;;;;18.64;36.60449;939.1666;;;;
2020/02/23 17:52:32;;;;;;;0.8;0.3;;;;;;;18.66;36.43164;939.0765;;;;
2020/02/23 17:54:58;;;;;;;1.2;0.4;;;;;;;18.7;36.49316;939.062;;;;
2020/02/23 17:59:23;;;;;;;0.8;0.2;;;;;;;18.62;36.09082;938.9956;;;;
2020/02/23 18:01:46;;;;;;;0.9;0.3;;;;;;;18.74;36.27539;939.0475;;;;
2020/02/23 18:04:07;;;;;;;0.5;0.3;;;;;;;18.56;36.72559;938.4594;;;;
2020/02/23 18:06:32;;;;;;;0.7;0.4;;;;;;;18.43;36.64453;939.0435;;;;
2020/02/23 18:08:57;;;;;;;0.5;0.4;;;;;;;18.5;35.79102;938.9428;;;;
2020/02/23 18:11:22;;;;;;;2.7;0.6;;;;;;;18.39;36.99023;939.248;;;;
2020/02/23 18:13:47;;;;;;;1;0.3;;;;;;;18.32;36.44922;939.2726;;;;
2020/02/23 18:16:12;;;;;;;0.5;0.5;;;;;;;18.36;36.19727;939.3203;;;;
2020/02/23 18:18:37;;;;;;;1.4;0.7;;;;;;;18.46;36.36816;939.1187;;;;
2020/02/23 18:21:02;;;;;;;0.9;0.7;;;;;;;18.28;36.84082;939.238;;;;
2020/02/23 18:23:27;;;;;;;3.1;0.4;;;;;;;18.32;35.90332;939.1888;;;;
2020/02/23 18:25:53;;;;;;;2.9;0.6;;;;;;;18.36;36.31348;939.1213;;;;
2020/02/23 18:28:18;;;;;;;1;0.7;;;;;;;18.43;35.50488;939.3434;;;;
2020/02/23 18:30:46;;;;;;;2.7;2.1;;;;;;;18.52;35.17578;939.2167;;;;
2020/02/23 18:33:12;;;;;;;0.6;0.5;;;;;;;18.53;36.02539;939.3851;;;;
2020/02/23 18:35:45;;;;;;;1.2;0.9;;;;;;;18.43;35.06348;938.929;;;;
2020/02/23 18:38:09;;;;;;;2.3;0.5;;;;;;;18.42;35.0752;938.9905;;;;
2020/02/23 18:40:31;;;;;;;1.7;0.8;;;;;;;18.5;35.08203;939.0323;;;;
2020/02/23 18:42:56;;;;;;;0.9;0.6;;;;;;;18.44;34.59961;939.0425;;;;
2020/02/23 18:45:22;;;;;;;0.9;0.5;;;;;;;18.48;34.41699;939.0264;;;;
2020/02/23 18:47:47;;;;;;;1.2;1.1;;;;;;;18.47;34.62598;939.0983;;;;
2020/02/23 18:50:17;;;;;;;1.9;1.4;;;;;;;18.4;34.14355;938.98;;;;
2020/02/23 18:52:37;;;;;;;1.3;0.9;;;;;;;18.51;34.30273;938.5112;;;;
2020/02/23 18:55:02;;;;;;;1.5;0.8;;;;;;;18.49;34.19629;938.6133;;;;
2020/02/23 18:57:27;;;;;;;3.6;1.6;;;;;;;18.51;34.87207;938.5742;;;;
2020/02/23 18:59:52;;;;;;;1.9;0.5;;;;;;;18.29;34.08789;938.6283;;;;
2020/02/23 19:02:17;;;;;;;1.3;0.4;;;;;;;18.32;33.68359;938.7269;;;;
2020/02/23 19:04:42;;;;;;;1.2;0.5;;;;;;;18.36;33.24512;938.5994;;;;
2020/02/23 19:07:09;;;;;;;0.8;0.4;;;;;;;18.4;32.56152;938.6825;;;;
2020/02/23 19:09:34;;;;;;;2;0.9;;;;;;;18.48;32.09082;938.7764;;;;
2020/02/23 19:11:58;;;;;;;0.8;0.6;;;;;;;18.59;32.77344;938.85;;;;
2020/02/23 19:14:23;;;;;;;11.3;7.4;;;;;;;18.4;31.96875;938.9011;;;;
2020/02/23 19:16:48;;;;;;;4.6;2.6;;;;;;;18.42;31.74902;938.8039;;;;
2020/02/23 19:19:13;;;;;;;2.4;1.8;;;;;;;18.48;31.41699;938.7361;;;;
2020/02/23 19:21:39;;;;;;;0.8;0.5;;;;;;;18.3;31.74121;938.5314;;;;
2020/02/23 19:24:04;;;;;;;1;0.3;;;;;;;18.28;30.28613;938.6487;;;;
2020/02/23 19:26:29;;;;;;;0.7;0.4;;;;;;;18.4;30.2959;938.2841;;;;
2020/02/23 19:28:55;;;;;;;1.9;0.7;;;;;;;18.44;29.9375;938.4225;;;;
2020/02/23 19:31:20;;;;;;;1.9;0.4;;;;;;;18.37;29.50293;938.58;;;;
2020/02/23 19:33:45;;;;;;;1.6;0.4;;;;;;;18.4;29.00488;938.493;;;;
2020/02/23 19:36:10;;;;;;;0.6;0.4;;;;;;;18.41;28.85449;938.5461;;;;
2020/02/23 19:38:37;;;;;;;1;0.5;;;;;;;18.46;29.24023;938.6002;;;;
2020/02/23 19:41:02;;;;;;;0.3;0.3;;;;;;;18.48;28.50977;938.6055;;;;
2020/02/23 19:43:27;;;;;;;0.5;0.4;;;;;;;18.4;28.64453;938.7625;;;;
2020/02/23 19:45:52;;;;;;;0.4;0.3;;;;;;;18.42;28.00586;938.8;;;;
2020/02/23 19:48:21;;;;;;;0.6;0.4;;;;;;;18.48;27.58008;938.8539;;;;
2020/02/23 19:50:43;;;;;;;1.3;0.5;;;;;;;18.58;28.26074;938.8962;;;;
2020/02/23 19:53:08;;;;;;;1.8;0.3;;;;;;;18.51;27.52344;938.7725;;;;
2020/02/23 19:55:33;;;;;;;0.6;0.4;;;;;;;18.28;27.68359;938.9114;;;;
2020/02/23 19:57:58;;;;;;;0.6;0.4;;;;;;;18.34;27.41992;939.0062;;;;
2020/02/23 20:00:23;;;;;;;0.6;0.4;;;;;;;18.31;27.26758;938.873;;;;
2020/02/23 20:02:48;;;;;;;1;0.3;;;;;;;18.43;26.95996;938.7249;;;;
2020/02/23 20:05:13;;;;;;;0.3;0.3;;;;;;;18.38;27.15527;938.9756;;;;
2020/02/23 20:07:38;;;;;;;4.3;0.4;;;;;;;18.34;27.05957;938.8449;;;;
2020/02/23 20:10:03;;;;;;;1.9;0.2;;;;;;;18.3;26.95215;939.0981;;;;
2020/02/23 20:12:29;;;;;;;1.9;0.4;;;;;;;18.23;27.75;939.1131;;;;
2020/02/23 20:14:54;;;;;;;0.4;0.4;;;;;;;18.19;28.00293;939.1555;;;;
2020/02/23 20:17:19;;;;;;;0.7;0.4;;;;;;;18.23;28.11035;939.1324;;;;
2020/02/23 20:19:44;;;;;;;2.7;0.5;;;;;;;18.23;28.7373;939.0131;;;;
2020/02/23 20:22:10;;;;;;;1.9;0.4;;;;;;;18.22;28.26074;939.0149;;;;
2020/02/23 20:24:36;;;;;;;0.6;0.4;;;;;;;18.1;29.83301;938.8943;;;;
2020/02/23 20:27:01;;;;;;;0.4;0.3;;;;;;;18.05;29.30762;939.2788;;;;
2020/02/23 20:29:26;;;;;;;1.1;0.5;;;;;;;17.9;30.15625;938.9807;;;;
2020/02/23 20:31:51;;;;;;;0.5;0.4;;;;;;;17.93;29.83398;939.0478;;;;
2020/02/23 20:34:16;;;;;;;0.8;0.3;;;;;;;17.88;30.71289;939.1124;;;;
2020/02/23 20:36:41;;;;;;;0.6;0.5;;;;;;;17.65;31.75195;938.9836;;;;
2020/02/23 20:39:06;;;;;;;1.5;0.3;;;;;;;17.77;30.66992;939.2847;;;;
2020/02/23 20:41:54;;;;;;;1;0.5;;;;;;;17.71;30.81543;939.0723;;;;
2020/02/23 20:43:56;;;;;;;0.7;0.4;;;;;;;17.68;31.07031;939.1147;;;;
2020/02/23 20:46:21;;;;;;;2.2;0.5;;;;;;;17.71;32.01172;939.2397;;;;
2020/02/23 20:48:47;;;;;;;1;0.4;;;;;;;17.7;32.21973;939.2311;;;;
2020/02/23 20:51:12;;;;;;;1.4;0.5;;;;;;;17.81;32.63477;939.2598;;;;
2020/02/23 20:53:37;;;;;;;0.7;0.4;;;;;;;17.57;32.61621;939.3373;;;;
2020/02/23 20:56:03;;;;;;;1.3;0.4;;;;;;;17.46;32.94531;939.4597;;;;
2020/02/23 20:58:28;;;;;;;0.5;0.4;;;;;;;17.5;33.08789;939.4028;;;;
2020/02/23 21:00:54;;;;;;;0.7;0.4;;;;;;;17.58;33.68555;939.3766;;;;
2020/02/23 21:03:19;;;;;;;0.3;0.3;;;;;;;17.57;32.79102;939.405;;;;
2020/02/23 21:05:44;;;;;;;0.9;0.3;;;;;;;17.53;33.19434;939.3331;;;;
2020/02/23 21:08:10;;;;;;;0.7;0.5;;;;;;;17.54;33.3457;939.3386;;;;
2020/02/23 21:10:35;;;;;;;0.4;0.4;;;;;;;17.47;33.58398;939.3599;;;;
2020/02/23 21:13:00;;;;;;;0.4;0.2;;;;;;;17.33;34.11816;939.5281;;;;
2020/02/23 21:15:25;;;;;;;0.6;0.5;;;;;;;17.46;33.89648;939.5547;;;;
2020/02/23 21:17:51;;;;;;;0.5;0.4;;;;;;;17.28;34.54297;939.6264;;;;
2020/02/23 21:20:16;;;;;;;0.6;0.4;;;;;;;17.26;34.25195;939.5002;;;;
2020/02/23 21:22:41;;;;;;;0.4;0.4;;;;;;;17.29;35.06543;939.7034;;;;
2020/02/23 21:25:06;;;;;;;0.3;0.3;;;;;;;17.27;34.38086;939.6384;;;;
2020/02/23 21:27:31;;;;;;;0.9;0.4;;;;;;;17.26;34.51855;939.4207;;;;
2020/02/23 21:29:56;;;;;;;0.8;0.4;;;;;;;17.32;35.25391;939.6265;;;;
2020/02/23 21:32:21;;;;;;;1.1;0.4;;;;;;;17.14;35.22754;939.7173;;;;
2020/02/23 21:34:46;;;;;;;1.6;0.3;;;;;;;17.11;35.39941;939.8118;;;;
2020/02/23 21:37:11;;;;;;;0.7;0.4;;;;;;;17.15;35.19434;939.5264;;;;
2020/02/23 21:39:36;;;;;;;0.6;0.4;;;;;;;17.04;36.00781;939.7227;;;;
2020/02/23 21:42:01;;;;;;;3.4;0.4;;;;;;;17.04;35.6377;939.6149;;;;
2020/02/23 21:44:26;;;;;;;0.5;0.5;;;;;;;17.15;35.91309;939.6431;;;;
2020/02/23 21:46:52;;;;;;;1.1;0.4;;;;;;;17.05;35.74219;939.6727;;;;
2020/02/23 21:49:16;;;;;;;0.5;0.4;;;;;;;16.93;35.69727;939.9522;;;;
2020/02/23 21:51:42;;;;;;;0.8;0.4;;;;;;;16.91;35.58008;939.8069;;;;
2020/02/23 21:54:07;;;;;;;0.5;0.4;;;;;;;16.95;36.37109;939.6021;;;;
2020/02/23 21:56:32;;;;;;;0.4;0.4;;;;;;;16.91;35.64941;939.7964;;;;
2020/02/23 21:58:57;;;;;;;0.5;0.4;;;;;;;16.91;35.97363;939.8624;;;;
2020/02/23 22:01:22;;;;;;;0.4;0.4;;;;;;;16.8;35.88379;939.9753;;;;
2020/02/23 22:03:47;;;;;;;0.5;0.4;;;;;;;16.9;36.2627;940.0644;;;;
2020/02/23 22:06:13;;;;;;;0.5;0.5;;;;;;;16.86;35.95801;939.9193;;;;
2020/02/23 22:08:38;;;;;;;5.8;0.7;;;;;;;16.86;36.98926;939.9338;;;;
2020/02/23 22:11:03;;;;;;;0.9;0.4;;;;;;;16.76;36.48242;940.1736;;;;
2020/02/23 22:13:30;;;;;;;0.6;0.5;;;;;;;16.76;36.57617;940.1116;;;;
2020/02/23 22:15:53;;;;;;;0.6;0.5;;;;;;;16.74;36.7832;939.8714;;;;
2020/02/23 22:18:18;;;;;;;0.6;0.5;;;;;;;16.72;36.86133;939.9133;;;;
2020/02/23 22:20:43;;;;;;;0.7;0.4;;;;;;;16.67;36.69531;939.8296;;;;
2020/02/23 22:23:09;;;;;;;0.9;0.4;;;;;;;16.77;37.22559;939.9289;;;;
2020/02/23 22:25:34;;;;;;;0.7;0.4;;;;;;;16.74;36.86426;939.9824;;;;
2020/02/23 22:27:59;;;;;;;0.6;0.5;;;;;;;16.73;37.16406;939.8699;;;;
2020/02/23 22:30:25;;;;;;;0.6;0.4;;;;;;;16.69;37.24121;939.8897;;;;
2020/02/23 22:32:50;;;;;;;1.3;0.6;;;;;;;16.57;37.6709;939.9772;;;;
2020/02/23 22:35:15;;;;;;;0.7;0.4;;;;;;;16.62;37.55957;939.8692;;;;
2020/02/23 22:37:40;;;;;;;0.6;0.5;;;;;;;16.65;37.80566;939.8383;;;;
2020/02/23 22:40:05;;;;;;;1.6;0.6;;;;;;;16.59;37.92773;940.0397;;;;
2020/02/23 22:42:31;;;;;;;0.8;0.4;;;;;;;16.59;38.08984;939.8564;;;;
2020/02/23 22:44:56;;;;;;;0.4;0.3;;;;;;;16.63;38.23145;940.0298;;;;
2020/02/23 22:47:21;;;;;;;0.4;0.4;;;;;;;16.63;38.15039;939.7686;;;;
2020/02/23 22:49:46;;;;;;;0.7;0.5;;;;;;;16.63;38.17383;939.9969;;;;
2020/02/23 22:52:12;;;;;;;1.4;0.4;;;;;;;16.66;38.03711;940.073;;;;
2020/02/23 22:57:02;;;;;;;0.9;0.3;;;;;;;16.62;38.69434;940.1362;;;;
2020/02/23 22:59:27;;;;;;;0.7;0.3;;;;;;;16.7;39.02539;939.9039;;;;
2020/02/23 23:01:53;;;;;;;0.4;0.2;;;;;;;16.56;39.5459;940.0706;;;;
2020/02/23 23:04:18;;;;;;;0.3;0.3;;;;;;;16.61;38.92383;940.1384;;;;
2020/02/23 23:06:43;;;;;;;0.6;0.3;;;;;;;16.52;38.80078;940.2222;;;;
2020/02/23 23:09:08;;;;;;;0.8;0.4;;;;;;;16.54;39.08105;940.217;;;;
2020/02/23 23:11:33;;;;;;;0.9;0.4;;;;;;;16.7;39.10645;940.3478;;;;
2020/02/23 23:13:59;;;;;;;0.5;0.3;;;;;;;16.53;38.96387;940.1722;;;;
2020/02/23 23:16:23;;;;;;;0.7;0.3;;;;;;;16.62;39.18066;940.2648;;;;
2020/02/23 23:18:49;;;;;;;0.7;0.2;;;;;;;16.55;39.16211;940.4437;;;;
2020/02/23 23:21:15;;;;;;;1.1;0.3;;;;;;;16.63;39.28516;940.387;;;;
2020/02/23 23:23:41;;;;;;;0.3;0.3;;;;;;;16.55;40.05469;940.3528;;;;
2020/02/23 23:26:06;;;;;;;0.3;0.3;;;;;;;16.55;39.39453;940.4678;;;;
2020/02/23 23:28:31;;;;;;;0.6;0.3;;;;;;;16.56;39.41797;940.4903;;;;
2020/02/23 23:30:56;;;;;;;0.6;0.4;;;;;;;16.55;39.61426;940.3262;;;;
2020/02/23 23:33:21;;;;;;;0.6;0.4;;;;;;;16.6;39.8623;940.3861;;;;
2020/02/23 23:35:46;;;;;;;0.5;0.4;;;;;;;16.55;39.73047;940.2001;;;;
2020/02/23 23:38:11;;;;;;;0.9;0.4;;;;;;;16.43;40.28613;940.2697;;;;
2020/02/23 23:40:37;;;;;;;0.5;0.4;;;;;;;16.43;40.19434;940.2263;;;;
2020/02/23 23:43:03;;;;;;;0.5;0.4;;;;;;;16.49;40.32715;940.4419;;;;
2020/02/23 23:45:28;;;;;;;0.5;0.4;;;;;;;16.5;40.12988;940.2111;;;;
2020/02/23 23:47:53;;;;;;;0.4;0.4;;;;;;;16.46;40.39355;940.1287;;;;
2020/02/23 23:50:18;;;;;;;0.3;0.3;;;;;;;16.4;40.72363;940.3588;;;;
2020/02/23 23:52:43;;;;;;;1;0.3;;;;;;;16.28;41.75391;940.5183;;;;
2020/02/23 23:55:08;;;;;;;0.4;0.3;;;;;;;16.33;40.90234;940.3137;;;;
2020/02/23 23:57:33;;;;;;;0.5;0.4;;;;;;;16.36;40.9043;940.5522;;;;
2020/02/23 23:59:59;;;;;;;1.4;0.4;;;;;;;16.37;41.25195;940.0891;;;;
